sensor_id;sensor_type;location;lat;lon;timestamp;pressure;altitude;pressure_sealevel;temperature;humidity
62126;BME280;48112;53.282;6.150;2023-04-21T21:42:57;101103.72;;;17.33;56.87
62126;BME280;48112;53.282;6.150;2023-04-21T21:43:58;101095.53;;;17.33;56.84
62126;BME280;48112;53.282;6.150;2023-04-21T21:45:00;101096.28;;;17.33;56.62
62126;BME280;69591;53.282;6.150;2023-04-21T21:46:05;101098.25;;;17.33;56.91
62126;BME280;69591;53.282;6.150;2023-04-21T21:47:06;101089.28;;;17.32;56.66
62126;BME280;69591;53.282;6.150;2023-04-21T21:48:08;101088.09;;;17.33;56.74
62126;BME280;69591;53.282;6.150;2023-04-21T21:49:09;101093.94;;;17.32;56.95
62126;BME280;69591;53.282;6.150;2023-04-21T21:50:11;101097.47;;;17.32;56.72
62126;BME280;69591;53.282;6.150;2023-04-21T21:51:12;101098.25;;;17.33;56.67
62126;BME280;69591;53.282;6.150;2023-04-21T21:52:14;101101.00;;;17.33;56.82
62126;BME280;69591;53.282;6.150;2023-04-21T21:53:15;101102.94;;;17.32;56.92
62126;BME280;69591;53.282;6.150;2023-04-21T21:54:17;101099.41;;;17.32;56.96
62126;BME280;69591;53.282;6.150;2023-04-21T21:55:18;101102.13;;;17.32;56.67
62126;BME280;69591;53.282;6.150;2023-04-21T21:56:20;101102.94;;;17.32;56.85
62126;BME280;69591;53.282;6.150;2023-04-21T21:57:21;101099.41;;;17.32;56.73
62126;BME280;69591;53.282;6.150;2023-04-21T21:58:25;101107.59;;;17.32;56.87
62126;BME280;69591;53.282;6.150;2023-04-21T21:59:26;101104.88;;;17.32;56.66
62126;BME280;69591;53.282;6.150;2023-04-21T22:00:28;101104.88;;;17.32;56.79
62126;BME280;69591;53.282;6.150;2023-04-21T22:01:29;101106.84;;;17.31;57.00
62126;BME280;69591;53.282;6.150;2023-04-21T22:02:31;101106.84;;;17.31;57.11
62126;BME280;69591;53.282;6.150;2023-04-21T22:03:32;101111.13;;;17.32;56.88
62126;BME280;69591;53.282;6.150;2023-04-21T22:04:34;101104.09;;;17.31;56.64
62126;BME280;69591;53.282;6.150;2023-04-21T22:05:36;101096.69;;;17.32;56.79
62126;BME280;69591;53.282;6.150;2023-04-21T22:06:37;101097.84;;;17.31;56.95
62126;BME280;69591;53.282;6.150;2023-04-21T22:07:39;101104.88;;;17.32;56.80
62126;BME280;69591;53.282;6.150;2023-04-21T22:08:40;101098.66;;;17.31;56.56
62126;BME280;69591;53.282;6.150;2023-04-21T22:09:42;101097.84;;;17.31;56.93
62126;BME280;69591;53.282;6.150;2023-04-21T22:10:44;101090.84;;;17.30;56.86
62126;BME280;69591;53.282;6.150;2023-04-21T22:11:45;101097.06;;;17.30;56.90
62126;BME280;69591;53.282;6.150;2023-04-21T22:12:47;101098.66;;;17.31;56.94
62126;BME280;69591;53.282;6.150;2023-04-21T22:13:50;101091.59;;;17.30;57.09
62126;BME280;69591;53.282;6.150;2023-04-21T22:14:51;101086.94;;;17.31;56.74
62126;BME280;69591;53.282;6.150;2023-04-21T22:15:53;101089.66;;;17.31;57.13
62126;BME280;69591;53.282;6.150;2023-04-21T22:16:54;101093.56;;;17.30;56.69
62126;BME280;69591;53.282;6.150;2023-04-21T22:17:56;101091.19;;;17.28;56.67
62126;BME280;69591;53.282;6.150;2023-04-21T22:18:57;101096.28;;;17.30;56.93
62126;BME280;69591;53.282;6.150;2023-04-21T22:19:59;101097.06;;;17.30;56.80
62126;BME280;69591;53.282;6.150;2023-04-21T22:21:00;101104.47;;;17.30;57.03
62126;BME280;69591;53.282;6.150;2023-04-21T22:22:02;101109.94;;;17.30;57.02
62126;BME280;69591;53.282;6.150;2023-04-21T22:23:04;101107.22;;;17.30;56.89
62126;BME280;69591;53.282;6.150;2023-04-21T22:24:06;101110.69;;;17.30;57.06
62126;BME280;69591;53.282;6.150;2023-04-21T22:25:08;101106.41;;;17.29;56.97
62126;BME280;69591;53.282;6.150;2023-04-21T22:26:09;101102.91;;;17.29;56.93
62126;BME280;69591;53.282;6.150;2023-04-21T22:27:11;101101.75;;;17.30;57.03
62126;BME280;69591;53.282;6.150;2023-04-21T22:28:12;101106.41;;;17.29;56.79
62126;BME280;69591;53.282;6.150;2023-04-21T22:29:16;101100.97;;;17.29;56.91
62126;BME280;69591;53.282;6.150;2023-04-21T22:30:17;101106.41;;;17.29;56.96
62126;BME280;69591;53.282;6.150;2023-04-21T22:31:20;101106.41;;;17.29;56.95
62126;BME280;69591;53.282;6.150;2023-04-21T22:32:21;101100.16;;;17.29;56.91
62126;BME280;69591;53.282;6.150;2023-04-21T22:33:23;101106.41;;;17.29;56.93
62126;BME280;69591;53.282;6.150;2023-04-21T22:34:25;101106.41;;;17.29;57.01
62126;BME280;69591;53.282;6.150;2023-04-21T22:35:26;101114.59;;;17.29;56.89
62126;BME280;69591;53.282;6.150;2023-04-21T22:36:28;101116.53;;;17.29;57.22
62126;BME280;69591;53.282;6.150;2023-04-21T22:37:29;101110.28;;;17.28;56.81
62126;BME280;69591;53.282;6.150;2023-04-21T22:38:31;101111.09;;;17.29;56.89
62126;BME280;69591;53.282;6.150;2023-04-21T22:39:33;101111.09;;;17.29;56.92
62126;BME280;69591;53.282;6.150;2023-04-21T22:40:34;101115.75;;;17.28;56.74
62126;BME280;69591;53.282;6.150;2023-04-21T22:41:36;101102.09;;;17.28;57.17
62126;BME280;69591;53.282;6.150;2023-04-21T22:42:38;101095.50;;;17.29;56.89
62126;BME280;69591;53.282;6.150;2023-04-21T22:43:39;101088.47;;;17.28;57.04
62126;BME280;69591;53.282;6.150;2023-04-21T22:44:42;101085.38;;;17.30;57.22
62126;BME280;69591;53.282;6.150;2023-04-21T22:45:44;101092.78;;;17.29;57.01
62126;BME280;69591;53.282;6.150;2023-04-21T22:46:45;101084.59;;;17.29;57.30
62126;BME280;69591;53.282;6.150;2023-04-21T22:47:47;101086.53;;;17.29;56.86
62126;BME280;69591;53.282;6.150;2023-04-21T22:48:49;101083.00;;;17.28;56.87
62126;BME280;69591;53.282;6.150;2023-04-21T22:49:50;101085.72;;;17.28;57.12
62126;BME280;69591;53.282;6.150;2023-04-21T22:50:52;101082.25;;;17.28;56.81
62126;BME280;69591;53.282;6.150;2023-04-21T22:51:54;101083.00;;;17.28;56.83
62126;BME280;69591;53.282;6.150;2023-04-21T22:52:55;101088.47;;;17.28;57.04
62126;BME280;69591;53.282;6.150;2023-04-21T22:53:57;101084.97;;;17.28;57.15
62126;BME280;69591;53.282;6.150;2023-04-21T22:54:59;101090.03;;;17.29;57.08
62126;BME280;69591;53.282;6.150;2023-04-21T22:56:00;101091.97;;;17.29;57.21
62126;BME280;69591;53.282;6.150;2023-04-21T22:57:02;101095.50;;;17.29;57.02
62126;BME280;69591;53.282;6.150;2023-04-21T22:58:03;101094.72;;;17.29;57.07
62126;BME280;69591;53.282;6.150;2023-04-21T22:59:05;101102.09;;;17.28;56.97
62126;BME280;69591;53.282;6.150;2023-04-21T23:00:09;101091.19;;;17.28;56.93
62126;BME280;69591;53.282;6.150;2023-04-21T23:01:14;101089.25;;;17.29;57.21
62126;BME280;69591;53.282;6.150;2023-04-21T23:02:19;101080.28;;;17.28;56.99
62126;BME280;69591;53.282;6.150;2023-04-21T23:03:21;101082.25;;;17.28;56.68
62126;BME280;69591;53.282;6.150;2023-04-21T23:04:23;101087.69;;;17.28;57.11
62126;BME280;69591;53.282;6.150;2023-04-21T23:05:24;101083.78;;;17.29;56.81
62126;BME280;69591;53.282;6.150;2023-04-21T23:06:26;101083.78;;;17.29;56.83
62126;BME280;69591;53.282;6.150;2023-04-21T23:07:27;101100.16;;;17.29;56.82
62126;BME280;69591;53.282;6.150;2023-04-21T23:08:29;101092.78;;;17.29;56.68
62126;BME280;69591;53.282;6.150;2023-04-21T23:09:30;101093.56;;;17.30;56.69
62126;BME280;69591;53.282;6.150;2023-04-21T23:10:32;101096.28;;;17.30;56.65
62126;BME280;69591;53.282;6.150;2023-04-21T23:11:34;101105.63;;;17.29;56.82
62126;BME280;69591;53.282;6.150;2023-04-21T23:12:35;101107.22;;;17.30;57.02
62126;BME280;69591;53.282;6.150;2023-04-21T23:13:37;101106.41;;;17.29;56.86
62126;BME280;69591;53.282;6.150;2023-04-21T23:14:38;101110.28;;;17.28;56.37
62126;BME280;69591;53.282;6.150;2023-04-21T23:15:41;101112.66;;;17.30;56.73
62126;BME280;69591;53.282;6.150;2023-04-21T23:16:42;101113.81;;;17.29;57.01
62126;BME280;69591;53.282;6.150;2023-04-21T23:17:44;101122.00;;;17.29;56.55
62126;BME280;69591;53.282;6.150;2023-04-21T23:18:45;101132.91;;;17.29;56.83
62126;BME280;69591;53.282;6.150;2023-04-21T23:19:47;101146.19;;;17.30;56.94
62126;BME280;69591;53.282;6.150;2023-04-21T23:20:49;101142.69;;;17.30;56.83
62126;BME280;69591;53.282;6.150;2023-04-21T23:21:50;101145.41;;;17.30;56.66
62126;BME280;69591;53.282;6.150;2023-04-21T23:22:52;101139.97;;;17.30;56.98
62126;BME280;69591;53.282;6.150;2023-04-21T23:23:53;101151.63;;;17.30;56.89
62126;BME280;69591;53.282;6.150;2023-04-21T23:24:55;101145.41;;;17.30;56.76
62126;BME280;69591;53.282;6.150;2023-04-21T23:25:56;101146.19;;;17.30;56.72
62126;BME280;69591;53.282;6.150;2023-04-21T23:26:58;101154.38;;;17.30;56.67
62126;BME280;69591;53.282;6.150;2023-04-21T23:27:59;101141.53;;;17.31;56.74
62126;BME280;69591;53.282;6.150;2023-04-21T23:29:01;101152.44;;;17.31;56.54
62126;BME280;69591;53.282;6.150;2023-04-21T23:30:03;101149.69;;;17.31;56.95
62126;BME280;69591;53.282;6.150;2023-04-21T23:31:06;101146.97;;;17.31;56.84
62126;BME280;69591;53.282;6.150;2023-04-21T23:32:07;101154.00;;;17.32;56.77
62126;BME280;69591;53.282;6.150;2023-04-21T23:33:09;101155.16;;;17.31;56.62
62126;BME280;69591;53.282;6.150;2023-04-21T23:34:10;101159.44;;;17.32;56.74
62126;BME280;69591;53.282;6.150;2023-04-21T23:35:12;101170.38;;;17.32;56.84
62126;BME280;69591;53.282;6.150;2023-04-21T23:36:13;101167.63;;;17.32;56.60
62126;BME280;69591;53.282;6.150;2023-04-21T23:37:15;101163.34;;;17.31;56.83
62126;BME280;69591;53.282;6.150;2023-04-21T23:38:17;101159.44;;;17.32;56.65
62126;BME280;69591;53.282;6.150;2023-04-21T23:39:18;101163.34;;;17.31;56.64
62126;BME280;69591;53.282;6.150;2023-04-21T23:40:20;101164.16;;;17.31;56.51
62126;BME280;69591;53.282;6.150;2023-04-21T23:41:21;101159.44;;;17.32;56.65
62126;BME280;69591;53.282;6.150;2023-04-21T23:42:23;101162.19;;;17.32;56.71
62126;BME280;69591;53.282;6.150;2023-04-21T23:43:24;101164.91;;;17.32;56.68
62126;BME280;69591;53.282;6.150;2023-04-21T23:44:26;101158.31;;;17.33;56.46
62126;BME280;69591;53.282;6.150;2023-04-21T23:45:27;101143.06;;;17.32;56.70
62126;BME280;69591;53.282;6.150;2023-04-21T23:46:30;101154.78;;;17.32;56.59
62126;BME280;69591;53.282;6.150;2023-04-21T23:47:32;101156.34;;;17.33;56.91
62126;BME280;69591;53.282;6.150;2023-04-21T23:48:34;101152.84;;;17.33;56.89
62126;BME280;69591;53.282;6.150;2023-04-21T23:49:35;101144.66;;;17.33;56.72
62126;BME280;69591;53.282;6.150;2023-04-21T23:50:37;101126.69;;;17.32;56.93
62126;BME280;69591;53.282;6.150;2023-04-21T23:51:39;101126.31;;;17.33;56.93
62126;BME280;69591;53.282;6.150;2023-04-21T23:52:40;101117.38;;;17.33;56.77
62126;BME280;69591;53.282;6.150;2023-04-21T23:53:41;101101.00;;;17.33;56.70
62126;BME280;69591;53.282;6.150;2023-04-21T23:54:43;101090.84;;;17.33;56.88
62126;BME280;69591;53.282;6.150;2023-04-21T23:55:45;101098.25;;;17.33;56.58
62126;BME280;69591;53.282;6.150;2023-04-21T23:56:46;101101.00;;;17.33;56.74
62126;BME280;69591;53.282;6.150;2023-04-21T23:57:47;101117.38;;;17.33;56.84
62126;BME280;69591;53.282;6.150;2023-04-21T23:58:49;101113.84;;;17.32;56.93
62126;BME280;69591;53.282;6.150;2023-04-21T23:59:50;101112.66;;;17.33;56.83
